Ludlow, Illinois
Current Conditions -  °F | °C
As of 12:30 AM on Friday 31 Oct 2014 (Local Time) from KTIP Reporting Station
Overcast Overcast  
Wind Chill: 42°   Ceiling: 8000
Heat Index: 45°   Visibility: 7mi
Dew Point: 43°   Wind: 5mph
Humidity: 93%   Direction: 300°WNW
Pressure: 30.06"   Gusts: NA
Location:  40.39°N, 88.13°W
Report Text: KTIP 310530Z AUTO 30004KT 7SM BKN080 OVC090 07/06 A3006 RMK AO2 T00700060
Loading
Personal Weather Stations






























Interactive Weather Map
Tropical Storm Tracking
New forecast layout! Learn more

10-Day Weather Forecast

Advertisements
Track Severe Weather on mobile